Main page
METAR-TAF:

METAR-TAF

Airports :

Brighton City Airport (Shoreham Airport)

Brighton, England

latitude: 50-50N, longitude: 000-17W, elevation: 2 m

Current weather observation

The report was made 6 hours and 30 minutes ago, at 19:50 UTC
Wind 8 kt from the Southwest
Temperature 10°C
Humidity 87%
Pressure 1034 hPa
Visibility 10 km or more
Broken clouds at a height of 1000 ft

METAR: EGKA 201950Z 23008KT 9999 BKN010 10/08 Q1034

Time: 02:20 (02:20 UTC)

Forecast

The report was made 12 hours and 30 minutes ago, at 13:50 UTC
Forecast valid from 20 at 15 UTC to 20 at 19 UTC
Wind 4 kt from the West/Southwest
Visibility 10 km or more
Broken clouds at a height of 1800 ft
Probability 30% :
Temporary
from 20 at 15 UTC to 20 at 19 UTC
Visibility: 3000 m
Broken clouds at a height of 300 ft
mist

TAF: EGKA 201350Z 2015/2019 25004KT 9999 BKN018 PROB30 TEMPO 2015/2019 3000 BR BKN003

Weather observations and forecasts of more than 4000 airports (METAR and TAF reports).

The available stations are represented by yellow and red dots on the map.

Hover mouse over dot to see the name of the station.

Then click to see weather observations and forecasts.

To change the map : click on the green buttons with a black cross to zoom in, on the green button with a dash to zoom out, or on the green arrows for adjacent maps.


METAR-TAF: